Time;durP1;ratioP1;P1;durP2;ratioP2;P2;SDS_P1;SDS_P2;PMS_P1;PMS_P2;Temp;Humidity;BMP_temperature;BMP_pressure;BME280_temperature;BME280_humidity;BME280_pressure;Samples;Min_cycle;Max_cycle;Signal;HPM_P1;HPM_P2
2023/10/26 00:01:11;;;;;;;14.13;9.88;;;11.90;99.90;;;;;;4897816;29;20028;-76
2023/10/26 00:03:37;;;;;;;12.52;10.23;;;11.90;99.90;;;;;;4881389;29;20647;-75
2023/10/26 00:06:03;;;;;;;11.88;9.20;;;12.00;99.90;;;;;;4898234;29;20033;-75
2023/10/26 00:08:28;;;;;;;16.17;9.88;;;12.00;99.90;;;;;;4898242;29;20501;-75
2023/10/26 00:10:54;;;;;;;16.35;10.25;;;12.10;99.90;;;;;;4898060;29;20039;-76
2023/10/26 00:13:20;;;;;;;15.35;10.57;;;12.10;99.90;;;;;;4898144;29;20040;-75
2023/10/26 00:15:45;;;;;;;13.07;10.38;;;12.10;99.90;;;;;;4897934;29;20039;-74
2023/10/26 00:18:13;;;;;;;12.18;10.30;;;12.10;99.90;;;;;;4897518;29;20036;-75
2023/10/26 00:20:38;;;;;;;12.98;10.60;;;12.10;99.90;;;;;;4883868;29;20143;-75
2023/10/26 00:23:06;;;;;;;13.23;9.90;;;12.10;99.90;;;;;;4879256;29;20448;-75
2023/10/26 00:25:32;;;;;;;12.30;10.48;;;12.10;99.90;;;;;;4862820;29;20416;-75
2023/10/26 00:27:58;;;;;;;11.20;9.90;;;12.10;99.90;;;;;;4862539;29;20037;-75
2023/10/26 00:30:24;;;;;;;10.18;9.07;;;12.10;99.90;;;;;;4862563;29;20037;-75
2023/10/26 00:32:50;;;;;;;10.38;9.02;;;12.10;99.90;;;;;;4879060;29;20039;-75
2023/10/26 00:35:16;;;;;;;10.18;8.65;;;12.20;99.90;;;;;;4862643;29;20041;-74
2023/10/26 00:37:42;;;;;;;8.65;7.68;;;12.20;99.90;;;;;;4879376;29;20033;-75
2023/10/26 00:40:08;;;;;;;13.13;10.77;;;12.20;99.90;;;;;;4879305;29;20030;-75
2023/10/26 00:42:33;;;;;;;13.40;10.93;;;12.20;99.90;;;;;;4863205;29;20036;-76
2023/10/26 00:44:59;;;;;;;17.33;10.70;;;12.20;99.90;;;;;;4865594;29;20510;-75
2023/10/26 00:47:26;;;;;;;14.23;11.02;;;12.10;99.90;;;;;;4882907;29;20041;-76
2023/10/26 00:49:53;;;;;;;12.93;11.05;;;12.10;99.90;;;;;;4865593;29;20470;-77
2023/10/26 00:52:19;;;;;;;12.23;9.80;;;12.10;99.90;;;;;;4882544;29;20033;-76
2023/10/26 00:54:45;;;;;;;13.55;11.02;;;12.10;99.90;;;;;;4882436;29;20041;-76
2023/10/26 00:57:14;;;;;;;13.93;12.38;;;12.00;99.90;;;;;;4882725;29;20547;-76
2023/10/26 00:59:43;;;;;;;14.10;12.45;;;12.00;99.90;;;;;;4882508;29;20029;-76
2023/10/26 01:02:10;;;;;;;13.48;11.40;;;12.00;99.90;;;;;;4882134;29;20071;-76
2023/10/26 01:04:35;;;;;;;14.10;11.90;;;12.00;99.90;;;;;;4882664;29;20040;-75
2023/10/26 01:07:01;;;;;;;12.18;10.95;;;11.90;99.90;;;;;;4876766;29;20036;-75
2023/10/26 01:09:26;;;;;;;13.43;10.80;;;11.90;99.90;;;;;;4901106;29;20351;-76
2023/10/26 01:11:53;;;;;;;14.45;9.15;;;12.00;99.90;;;;;;4900976;29;20043;-76
2023/10/26 01:14:19;;;;;;;11.27;9.77;;;12.00;99.90;;;;;;4900797;29;20496;-75
2023/10/26 01:16:45;;;;;;;13.52;11.20;;;11.90;99.90;;;;;;4900781;29;20116;-76
2023/10/26 01:19:10;;;;;;;12.98;11.25;;;11.90;99.90;;;;;;4900464;29;20386;-75
2023/10/26 01:21:52;;;;;;;11.65;10.00;;;11.90;99.90;;;;;;4883712;29;20184;-75
2023/10/26 01:24:18;;;;;;;11.48;10.18;;;11.80;99.90;;;;;;4900437;29;20036;-76
2023/10/26 01:26:44;;;;;;;11.35;10.02;;;11.80;99.90;;;;;;4883802;29;20056;-75
2023/10/26 01:29:11;;;;;;;12.43;10.20;;;11.80;99.90;;;;;;4883578;29;20569;-76
2023/10/26 01:31:36;;;;;;;14.65;10.40;;;11.80;99.90;;;;;;4900755;29;20029;-75
2023/10/26 01:34:02;;;;;;;14.13;10.40;;;11.80;99.90;;;;;;4900655;29;20104;-75
2023/10/26 01:36:28;;;;;;;10.80;9.50;;;11.80;99.90;;;;;;4883772;29;20489;-75
2023/10/26 01:38:55;;;;;;;12.40;9.52;;;11.80;99.90;;;;;;4883583;29;20037;-76
2023/10/26 01:41:21;;;;;;;11.60;10.23;;;11.80;99.90;;;;;;4900263;29;20168;-76
2023/10/26 01:43:47;;;;;;;10.60;9.50;;;11.90;99.90;;;;;;4883689;29;20182;-76
2023/10/26 01:46:13;;;;;;;11.75;10.00;;;11.90;99.90;;;;;;4900437;29;20135;-76
2023/10/26 01:48:39;;;;;;;13.07;11.63;;;11.90;99.90;;;;;;4899804;29;20480;-76
2023/10/26 01:51:05;;;;;;;10.93;9.93;;;11.90;99.90;;;;;;4883270;29;20385;-76
2023/10/26 01:53:30;;;;;;;15.40;12.15;;;11.90;99.90;;;;;;4883205;29;20036;-76
2023/10/26 01:55:56;;;;;;;14.57;11.50;;;11.80;99.90;;;;;;4866890;29;20119;-77
2023/10/26 01:58:22;;;;;;;12.80;10.60;;;11.80;99.90;;;;;;4900091;29;20380;-77
2023/10/26 02:00:48;;;;;;;13.85;10.13;;;11.80;99.90;;;;;;4900022;29;20076;-76
2023/10/26 02:03:15;;;;;;;14.15;12.70;;;11.90;99.90;;;;;;4899679;29;20028;-77
2023/10/26 02:05:41;;;;;;;18.67;14.25;;;11.80;99.90;;;;;;4883414;29;20036;-76
2023/10/26 02:08:06;;;;;;;14.88;12.75;;;11.80;99.90;;;;;;4867765;29;20037;-75
2023/10/26 02:10:32;;;;;;;15.73;12.77;;;11.70;99.90;;;;;;4883153;29;20037;-77
2023/10/26 02:12:58;;;;;;;15.20;13.27;;;11.70;99.90;;;;;;4867533;29;20115;-76
2023/10/26 02:15:24;;;;;;;15.48;12.10;;;11.70;99.90;;;;;;4899865;29;20028;-77
2023/10/26 02:17:49;;;;;;;15.85;12.25;;;11.70;99.90;;;;;;4899172;29;20029;-76
2023/10/26 02:20:15;;;;;;;15.10;12.13;;;11.80;99.90;;;;;;4899583;29;20515;-76
2023/10/26 02:22:41;;;;;;;14.60;12.52;;;11.80;99.90;;;;;;4882862;29;20425;-76
2023/10/26 02:25:07;;;;;;;14.80;11.88;;;11.80;99.90;;;;;;4882771;29;20063;-76
2023/10/26 02:27:33;;;;;;;19.30;13.88;;;11.90;99.90;;;;;;4899222;29;20379;-76
2023/10/26 02:29:59;;;;;;;16.98;15.20;;;11.90;99.90;;;;;;4899614;29;20039;-76
2023/10/26 02:32:26;;;;;;;15.50;13.90;;;11.90;99.90;;;;;;4899348;29;20496;-76
2023/10/26 02:34:51;;;;;;;15.68;13.98;;;11.90;99.90;;;;;;4899655;29;20036;-76
2023/10/26 02:37:19;;;;;;;15.90;14.02;;;11.90;99.90;;;;;;4882881;29;20116;-75
2023/10/26 02:39:48;;;;;;;17.27;14.35;;;11.90;99.90;;;;;;4899115;29;20469;-76
2023/10/26 02:42:13;;;;;;;17.75;15.85;;;11.90;99.90;;;;;;4883177;29;20029;-76
2023/10/26 02:44:39;;;;;;;16.85;15.07;;;11.90;99.90;;;;;;4899134;29;20085;-75
2023/10/26 02:47:05;;;;;;;15.98;14.20;;;11.80;99.90;;;;;;4899203;29;20060;-76
2023/10/26 02:49:31;;;;;;;15.13;13.52;;;11.80;99.90;;;;;;4882140;29;20116;-75
2023/10/26 02:51:57;;;;;;;17.70;15.45;;;11.80;99.90;;;;;;4899137;29;20024;-75
2023/10/26 02:54:26;;;;;;;18.70;14.98;;;11.90;99.90;;;;;;4898894;29;20035;-75
2023/10/26 02:56:51;;;;;;;16.25;14.55;;;11.80;99.90;;;;;;4899059;29;20040;-76
2023/10/26 02:59:17;;;;;;;18.40;15.85;;;11.80;99.90;;;;;;4898596;29;20389;-76
2023/10/26 03:01:42;;;;;;;16.90;14.57;;;11.70;99.90;;;;;;4898803;29;20091;-75
2023/10/26 03:04:08;;;;;;;18.02;16.05;;;11.70;99.90;;;;;;4882220;29;20049;-75
2023/10/26 03:06:41;;;;;;;16.58;14.88;;;11.70;99.90;;;;;;4881561;29;20409;-76
2023/10/26 03:09:10;;;;;;;17.30;14.60;;;11.60;99.90;;;;;;4898949;29;20032;-77
2023/10/26 03:11:36;;;;;;;16.75;14.77;;;11.70;99.90;;;;;;4881993;29;20036;-76
2023/10/26 03:14:02;;;;;;;18.15;15.57;;;11.80;99.90;;;;;;4882224;29;20043;-76
2023/10/26 03:16:28;;;;;;;15.52;13.85;;;11.80;99.90;;;;;;4898565;29;20025;-76
2023/10/26 03:18:53;;;;;;;17.88;15.73;;;11.80;99.90;;;;;;4898683;29;20049;-76
2023/10/26 03:21:20;;;;;;;17.17;15.27;;;11.80;99.90;;;;;;4917349;29;20092;-77
2023/10/26 03:23:52;;;;;;;18.33;15.95;;;11.80;99.90;;;;;;4885235;29;20449;-76
2023/10/26 03:26:18;;;;;;;16.75;14.98;;;11.80;99.90;;;;;;4917790;29;20047;-76
2023/10/26 03:28:44;;;;;;;18.15;15.77;;;11.90;99.90;;;;;;4917508;29;20096;-75
2023/10/26 03:31:13;;;;;;;17.85;15.02;;;11.80;99.90;;;;;;4917417;29;20465;-75
2023/10/26 03:33:39;;;;;;;15.73;14.02;;;11.80;99.90;;;;;;4900354;29;20051;-75
2023/10/26 03:36:11;;;;;;;18.90;15.18;;;11.90;99.90;;;;;;4884970;29;20058;-75
2023/10/26 03:38:37;;;;;;;18.90;15.38;;;11.90;99.90;;;;;;4917473;29;20445;-76
2023/10/26 03:41:04;;;;;;;18.63;15.18;;;11.90;99.90;;;;;;4917255;29;20064;-75
2023/10/26 03:43:29;;;;;;;18.85;15.77;;;11.80;99.90;;;;;;4900427;29;20032;-77
2023/10/26 03:45:55;;;;;;;23.90;16.40;;;11.80;99.90;;;;;;4917148;29;20090;-76
2023/10/26 03:48:21;;;;;;;20.38;16.20;;;11.80;99.90;;;;;;4916558;29;20036;-77
2023/10/26 03:50:46;;;;;;;19.08;16.17;;;11.80;99.90;;;;;;4917351;29;20043;-76
2023/10/26 03:53:12;;;;;;;16.75;14.95;;;11.80;99.90;;;;;;4900413;29;20036;-76
2023/10/26 03:55:37;;;;;;;16.60;14.73;;;11.80;99.90;;;;;;4884452;29;20035;-76
2023/10/26 03:58:03;;;;;;;16.83;14.23;;;11.80;99.90;;;;;;4916903;29;20396;-75
2023/10/26 04:00:29;;;;;;;18.10;15.73;;;11.90;99.90;;;;;;4900204;29;20410;-76
2023/10/26 04:02:54;;;;;;;21.42;16.25;;;11.80;99.90;;;;;;4917048;29;20036;-76
2023/10/26 04:05:20;;;;;;;18.63;16.25;;;11.80;99.90;;;;;;4899955;29;20036;-75
2023/10/26 04:07:46;;;;;;;18.63;14.70;;;11.70;99.90;;;;;;4917122;29;20541;-75
2023/10/26 04:10:11;;;;;;;17.08;14.90;;;11.70;99.90;;;;;;4916706;29;20406;-75
2023/10/26 04:12:37;;;;;;;19.80;15.77;;;11.70;99.90;;;;;;4899976;29;20084;-76
2023/10/26 04:15:04;;;;;;;18.60;15.98;;;11.70;99.90;;;;;;4900099;29;20028;-76
2023/10/26 04:17:30;;;;;;;18.98;16.00;;;11.60;99.90;;;;;;4899985;29;20039;-76
2023/10/26 04:19:56;;;;;;;18.00;15.50;;;11.60;99.90;;;;;;4903060;29;20052;-76
2023/10/26 04:22:23;;;;;;;18.58;14.82;;;11.60;99.90;;;;;;4920510;29;20561;-75
2023/10/26 04:24:48;;;;;;;16.83;14.65;;;11.70;99.90;;;;;;4920568;29;20437;-75
2023/10/26 04:27:14;;;;;;;16.08;14.02;;;11.70;99.90;;;;;;4920381;29;20103;-77
2023/10/26 04:29:40;;;;;;;17.35;14.05;;;11.70;99.90;;;;;;4903901;29;20033;-78
2023/10/26 04:32:07;;;;;;;15.85;13.30;;;11.80;99.90;;;;;;4903439;29;20036;-78
2023/10/26 04:34:33;;;;;;;16.08;13.85;;;11.80;99.90;;;;;;4920593;29;20035;-82
2023/10/26 04:36:58;;;;;;;15.07;13.48;;;11.80;99.90;;;;;;4920751;29;20036;-82
2023/10/26 04:39:24;;;;;;;16.83;13.75;;;11.80;99.90;;;;;;4920313;29;20028;-81
2023/10/26 04:41:50;;;;;;;16.38;13.15;;;11.90;99.90;;;;;;4887870;29;20032;-81
2023/10/26 04:44:17;;;;;;;17.70;14.82;;;11.90;99.90;;;;;;4887778;29;20044;-80
2023/10/26 04:46:43;;;;;;;21.65;15.20;;;11.90;99.90;;;;;;4869578;29;20039;-80
2023/10/26 04:49:08;;;;;;;19.83;15.95;;;11.90;99.90;;;;;;4884134;29;20115;-81
2023/10/26 04:51:34;;;;;;;19.20;15.55;;;11.90;99.90;;;;;;4884512;29;20037;-81
2023/10/26 04:54:00;;;;;;;19.65;16.23;;;11.80;99.90;;;;;;4901392;29;20029;-82
2023/10/26 04:56:25;;;;;;;18.90;15.10;;;11.80;99.90;;;;;;4901179;29;20028;-79
2023/10/26 04:58:51;;;;;;;20.00;15.90;;;11.90;99.90;;;;;;4884216;29;20120;-79
2023/10/26 05:01:17;;;;;;;16.30;14.48;;;11.90;99.90;;;;;;4900722;29;20037;-80
2023/10/26 05:03:42;;;;;;;21.98;17.48;;;11.90;99.90;;;;;;4901026;29;20048;-79
2023/10/26 05:06:08;;;;;;;17.58;14.52;;;11.90;99.90;;;;;;4886876;29;20043;-80
2023/10/26 05:08:34;;;;;;;32.15;13.25;;;11.80;99.90;;;;;;4884280;29;20484;-80
2023/10/26 05:10:59;;;;;;;52.15;13.65;;;11.80;99.90;;;;;;4884016;29;20083;-78
2023/10/26 05:13:25;;;;;;;33.63;12.85;;;11.80;99.90;;;;;;4884403;29;20428;-79
2023/10/26 05:15:51;;;;;;;17.77;12.93;;;11.80;99.90;;;;;;4884115;29;20033;-79
2023/10/26 05:18:17;;;;;;;15.15;12.93;;;11.80;99.90;;;;;;4873465;29;20104;-82
2023/10/26 05:20:51;;;;;;;13.27;11.88;;;11.80;99.90;;;;;;4863664;29;20094;-82
2023/10/26 05:23:16;;;;;;;36.22;13.40;;;11.80;99.90;;;;;;4918954;29;20039;-81
2023/10/26 05:25:42;;;;;;;14.57;13.02;;;11.80;99.90;;;;;;4919346;29;20400;-84
2023/10/26 05:28:08;;;;;;;13.77;12.38;;;11.80;99.90;;;;;;4919526;29;20485;-85
2023/10/26 05:30:34;;;;;;;15.50;12.25;;;11.80;99.90;;;;;;4902700;29;20375;-79
2023/10/26 05:32:59;;;;;;;28.45;12.48;;;11.80;99.90;;;;;;4918979;29;20054;-79
2023/10/26 05:35:25;;;;;;;13.73;12.23;;;11.80;99.90;;;;;;4918688;29;20032;-78
2023/10/26 05:37:51;;;;;;;16.40;13.80;;;11.80;99.90;;;;;;4918704;29;20032;-80
2023/10/26 05:40:17;;;;;;;15.85;12.93;;;11.80;99.90;;;;;;4919333;29;20029;-79
2023/10/26 05:42:43;;;;;;;13.80;12.35;;;11.70;99.90;;;;;;4918929;29;20043;-79
2023/10/26 05:45:09;;;;;;;15.57;11.02;;;11.70;99.90;;;;;;4902461;29;20047;-78
2023/10/26 05:47:35;;;;;;;15.88;11.60;;;11.80;99.90;;;;;;4901897;29;20393;-77
2023/10/26 05:50:00;;;;;;;13.55;11.13;;;11.80;99.90;;;;;;4918661;29;20028;-78
2023/10/26 05:52:26;;;;;;;13.38;12.00;;;11.80;99.90;;;;;;4918874;29;20054;-79
2023/10/26 05:54:52;;;;;;;22.42;12.63;;;11.80;99.90;;;;;;4901901;29;20064;-78
2023/10/26 05:57:18;;;;;;;8.30;7.50;;;11.80;99.90;;;;;;4886476;29;20520;-80
2023/10/26 05:59:44;;;;;;;11.90;9.32;;;11.80;99.90;;;;;;4917113;29;20090;-76
2023/10/26 06:02:10;;;;;;;13.52;10.48;;;11.90;99.90;;;;;;4893886;29;20180;-77
2023/10/26 06:04:35;;;;;;;13.50;10.48;;;11.90;99.90;;;;;;4900940;29;20047;-78
2023/10/26 06:07:01;;;;;;;22.55;11.40;;;11.80;99.90;;;;;;4902177;29;20070;-78
2023/10/26 06:09:27;;;;;;;12.85;11.07;;;11.70;99.90;;;;;;4901461;29;20181;-78
2023/10/26 06:11:53;;;;;;;11.85;10.50;;;11.60;99.90;;;;;;4901659;29;20084;-77
2023/10/26 06:14:19;;;;;;;21.90;10.02;;;11.50;99.90;;;;;;4918298;29;20573;-77
2023/10/26 06:16:45;;;;;;;11.30;10.20;;;11.50;99.90;;;;;;4901380;29;20439;-76
2023/10/26 06:19:11;;;;;;;12.68;9.98;;;11.40;99.90;;;;;;4882590;29;20112;-78
2023/10/26 06:21:38;;;;;;;12.00;10.20;;;11.30;99.90;;;;;;4899081;29;20033;-78
2023/10/26 06:24:05;;;;;;;13.00;9.70;;;11.30;99.90;;;;;;4899220;29;20033;-78
2023/10/26 06:26:31;;;;;;;6.53;5.60;;;11.30;99.90;;;;;;4875624;29;20029;-77
2023/10/26 06:28:57;;;;;;;10.75;6.95;;;11.40;99.90;;;;;;4878615;29;20092;-79
2023/10/26 06:31:22;;;;;;;7.75;7.05;;;11.50;99.90;;;;;;4888518;29;20033;-79
2023/10/26 06:33:48;;;;;;;10.27;9.18;;;11.60;99.90;;;;;;4899123;29;20040;-79
2023/10/26 06:36:14;;;;;;;8.55;7.72;;;11.60;99.90;;;;;;4893782;29;20515;-79
2023/10/26 06:38:40;;;;;;;9.30;8.40;;;11.60;99.90;;;;;;4893828;29;20037;-79
2023/10/26 06:41:07;;;;;;;10.40;8.95;;;11.70;99.90;;;;;;4871939;29;20039;-79
2023/10/26 06:43:33;;;;;;;15.95;9.90;;;11.80;99.90;;;;;;4889024;29;20137;-78
2023/10/26 06:46:00;;;;;;;8.57;7.78;;;11.80;99.90;;;;;;4898326;29;20105;-79
2023/10/26 06:48:25;;;;;;;15.73;8.40;;;11.90;99.90;;;;;;4879268;29;20360;-80
2023/10/26 06:50:58;;;;;;;21.30;9.50;;;12.00;99.90;;;;;;4888312;29;20533;-80
2023/10/26 06:53:24;;;;;;;14.40;8.38;;;12.00;99.90;;;;;;4880428;29;20028;-80
2023/10/26 06:55:51;;;;;;;10.80;7.68;;;12.10;99.90;;;;;;4891027;29;20036;-80
2023/10/26 06:58:17;;;;;;;22.63;6.75;;;12.10;99.90;;;;;;4887155;29;20032;-79
2023/10/26 07:00:42;;;;;;;25.77;8.90;;;12.10;99.90;;;;;;4863880;29;20040;-81
2023/10/26 07:03:08;;;;;;;9.93;9.02;;;12.10;99.90;;;;;;4886191;29;20040;-81
2023/10/26 07:05:34;;;;;;;13.57;8.55;;;12.10;99.90;;;;;;4851020;29;20041;-81
2023/10/26 07:08:00;;;;;;;9.55;8.60;;;12.10;99.90;;;;;;4880696;29;20033;-79
2023/10/26 07:10:28;;;;;;;12.57;9.02;;;12.10;99.90;;;;;;4863329;29;20504;-80
2023/10/26 07:12:54;;;;;;;12.82;8.18;;;12.20;99.90;;;;;;4863626;29;20493;-78
2023/10/26 07:15:20;;;;;;;14.43;8.85;;;12.10;99.90;;;;;;4863104;29;20038;-79
2023/10/26 07:17:46;;;;;;;89.60;20.63;;;12.10;99.90;;;;;;4880494;29;20501;-77
2023/10/26 07:20:15;;;;;;;26.83;12.25;;;12.10;99.90;;;;;;4897187;29;20578;-78
2023/10/26 07:22:42;;;;;;;69.65;16.77;;;12.10;99.90;;;;;;4894663;29;20069;-83
2023/10/26 07:25:08;;;;;;;102.90;18.90;;;12.10;99.90;;;;;;4896392;29;20040;-80
2023/10/26 07:27:34;;;;;;;127.90;27.35;;;12.10;99.90;;;;;;4880420;29;20120;-82
2023/10/26 07:30:01;;;;;;;15.23;10.73;;;12.10;99.90;;;;;;4895719;29;20056;-83
2023/10/26 07:32:26;;;;;;;23.88;9.02;;;12.10;99.90;;;;;;4881981;29;20139;-86
2023/10/26 07:34:54;;;;;;;56.33;12.82;;;12.00;99.90;;;;;;4898380;29;20522;-86
2023/10/26 07:37:19;;;;;;;43.50;10.35;;;11.90;99.90;;;;;;4898809;29;20415;-86
2023/10/26 07:39:45;;;;;;;69.28;17.40;;;12.00;99.90;;;;;;4880642;29;20103;-85
2023/10/26 07:42:11;;;;;;;40.38;13.50;;;12.00;99.90;;;;;;4898516;29;20116;-85
2023/10/26 07:44:37;;;;;;;59.25;14.95;;;12.00;99.90;;;;;;4897934;29;20039;-83
2023/10/26 07:47:04;;;;;;;55.55;13.68;;;12.00;99.90;;;;;;4881686;29;20115;-85
2023/10/26 07:49:30;;;;;;;59.20;15.05;;;12.00;99.90;;;;;;4897550;29;20386;-86
2023/10/26 07:51:56;;;;;;;113.63;11.25;;;12.10;99.90;;;;;;4882288;29;20079;-85
2023/10/26 07:54:21;;;;;;;13.55;9.25;;;12.00;99.90;;;;;;4898034;29;20489;-83
2023/10/26 07:56:47;;;;;;;36.00;12.63;;;12.00;99.90;;;;;;4881880;29;20558;-86
2023/10/26 07:59:13;;;;;;;38.75;9.63;;;12.00;99.90;;;;;;4852035;29;20039;-86
2023/10/26 08:01:38;;;;;;;15.95;9.23;;;12.00;99.90;;;;;;4878795;29;20056;-85
2023/10/26 08:04:05;;;;;;;22.13;9.05;;;12.00;99.90;;;;;;4879533;29;20033;-86
2023/10/26 08:06:31;;;;;;;14.32;9.20;;;11.90;99.90;;;;;;4853626;29;20048;-87
2023/10/26 08:08:58;;;;;;;44.60;9.77;;;11.90;99.90;;;;;;4882558;29;20119;-87
2023/10/26 08:11:24;;;;;;;23.60;9.65;;;11.90;99.90;;;;;;4881327;29;20106;-81
2023/10/26 08:13:51;;;;;;;22.20;9.40;;;11.90;99.90;;;;;;4891920;29;20037;-85
2023/10/26 08:16:16;;;;;;;46.35;13.02;;;12.00;99.90;;;;;;4897959;29;20071;-83
2023/10/26 08:18:42;;;;;;;55.08;15.13;;;12.00;99.90;;;;;;4880220;29;20478;-84
2023/10/26 08:21:09;;;;;;;29.50;11.93;;;12.10;99.90;;;;;;4897489;29;20087;-85
2023/10/26 08:23:35;;;;;;;33.15;11.95;;;12.10;99.90;;;;;;4880523;29;20044;-83
2023/10/26 08:26:08;;;;;;;37.55;12.15;;;12.10;99.90;;;;;;4876578;29;20064;-82
2023/10/26 08:28:35;;;;;;;47.17;14.27;;;12.10;99.90;;;;;;4855992;29;20040;-83
2023/10/26 08:31:03;;;;;;;21.83;9.90;;;12.20;99.90;;;;;;4897802;29;20041;-83
2023/10/26 08:33:30;;;;;;;13.50;8.15;;;12.20;99.90;;;;;;4880154;29;20108;-84
2023/10/26 08:35:56;;;;;;;45.63;10.38;;;12.20;99.90;;;;;;4897887;29;20061;-84
2023/10/26 08:38:26;;;;;;;47.20;9.93;;;12.30;99.90;;;;;;4895793;29;20486;-84
2023/10/26 08:40:53;;;;;;;26.05;9.10;;;12.30;99.90;;;;;;4878217;29;20143;-85
2023/10/26 08:43:20;;;;;;;30.33;9.25;;;12.40;99.90;;;;;;4896979;29;20104;-83
2023/10/26 08:45:47;;;;;;;29.48;9.40;;;12.40;99.90;;;;;;4895431;29;20033;-83
2023/10/26 08:48:17;;;;;;;29.50;9.65;;;12.40;99.90;;;;;;4878778;29;20059;-80
2023/10/26 08:50:44;;;;;;;14.23;9.25;;;12.50;99.90;;;;;;4877178;29;20141;-79
2023/10/26 08:53:10;;;;;;;33.38;9.73;;;12.50;99.90;;;;;;4861918;29;20055;-77
2023/10/26 08:55:40;;;;;;;21.75;10.05;;;12.50;99.90;;;;;;4879891;29;20393;-79
2023/10/26 08:58:06;;;;;;;23.73;10.65;;;12.50;99.90;;;;;;4880805;29;20040;-78
2023/10/26 09:00:32;;;;;;;16.10;9.43;;;12.50;99.90;;;;;;4896539;29;20048;-77
2023/10/26 09:02:58;;;;;;;13.75;9.55;;;12.50;99.90;;;;;;4880698;29;20041;-77
2023/10/26 09:05:24;;;;;;;26.90;9.95;;;12.40;99.90;;;;;;4871871;29;20059;-76
2023/10/26 09:07:53;;;;;;;30.77;10.70;;;12.50;99.90;;;;;;4900053;29;20466;-77
2023/10/26 09:10:29;;;;;;;16.42;10.38;;;12.40;99.90;;;;;;4899976;29;20040;-76
2023/10/26 09:13:03;;;;;;;23.67;10.30;;;12.40;99.90;;;;;;4898129;29;20067;-76
2023/10/26 09:15:29;;;;;;;22.25;10.75;;;12.30;99.90;;;;;;4887403;29;20048;-76
2023/10/26 09:17:57;;;;;;;17.35;11.25;;;12.30;99.90;;;;;;4883787;29;20041;-77
2023/10/26 09:20:24;;;;;;;23.10;10.95;;;12.30;99.90;;;;;;4899508;29;20057;-76
2023/10/26 09:22:50;;;;;;;16.48;11.75;;;12.30;99.90;;;;;;4883458;29;20044;-78
2023/10/26 09:25:17;;;;;;;19.92;10.68;;;12.30;99.90;;;;;;4899462;29;20473;-76
2023/10/26 09:27:45;;;;;;;30.90;11.80;;;12.30;99.90;;;;;;4899926;29;20470;-76
2023/10/26 09:30:32;;;;;;;16.45;11.70;;;12.40;99.90;;;;;;4874486;29;20032;-75
2023/10/26 09:32:58;;;;;;;19.15;12.98;;;12.30;99.90;;;;;;4894894;29;20123;-75
2023/10/26 09:35:33;;;;;;;19.17;12.27;;;12.30;99.90;;;;;;4899358;29;20040;-74
2023/10/26 09:37:59;;;;;;;14.73;12.15;;;12.30;99.90;;;;;;4883264;29;20048;-76
2023/10/26 09:40:27;;;;;;;17.83;11.80;;;12.30;99.90;;;;;;4897898;29;20128;-76
2023/10/26 09:42:56;;;;;;;17.67;13.35;;;12.40;99.90;;;;;;4877938;29;20033;-76
2023/10/26 09:45:21;;;;;;;17.67;13.65;;;12.40;99.90;;;;;;4898509;29;20028;-76
2023/10/26 09:47:48;;;;;;;18.42;13.30;;;12.40;99.90;;;;;;4887729;29;20029;-75
2023/10/26 09:50:14;;;;;;;16.30;12.68;;;12.40;99.90;;;;;;4895662;29;20029;-75
2023/10/26 09:52:42;;;;;;;19.45;15.13;;;12.50;99.90;;;;;;4900352;29;20036;-76
2023/10/26 09:55:13;;;;;;;17.25;12.43;;;12.50;99.90;;;;;;4882529;29;20500;-75
2023/10/26 09:57:52;;;;;;;17.67;15.40;;;12.50;99.90;;;;;;4899577;29;20119;-75
2023/10/26 10:00:18;;;;;;;18.00;14.57;;;12.50;99.90;;;;;;4898688;29;20032;-78
2023/10/26 10:02:44;;;;;;;21.02;16.42;;;12.40;99.90;;;;;;4882644;29;20386;-78
2023/10/26 10:05:38;;;;;;;18.65;14.77;;;12.50;99.90;;;;;;4882054;29;20041;-77
2023/10/26 10:08:04;;;;;;;21.65;17.60;;;12.50;99.90;;;;;;4882878;29;20385;-76
2023/10/26 10:10:30;;;;;;;20.63;17.25;;;12.70;99.90;;;;;;4881717;29;20037;-76
2023/10/26 10:12:56;;;;;;;23.35;18.40;;;12.60;99.90;;;;;;4899920;29;20374;-76
2023/10/26 10:15:39;;;;;;;20.33;15.93;;;12.70;99.90;;;;;;4860136;29;20108;-79
2023/10/26 10:18:08;;;;;;;21.05;17.35;;;12.70;99.90;;;;;;4891003;29;20033;-79
2023/10/26 10:20:40;;;;;;;21.55;19.23;;;12.70;99.90;;;;;;4893925;29;20055;-79
2023/10/26 10:23:06;;;;;;;22.50;17.90;;;12.70;99.90;;;;;;4900450;29;20047;-80
2023/10/26 10:25:50;;;;;;;21.05;17.13;;;12.60;99.90;;;;;;4917740;29;20036;-79
2023/10/26 10:28:18;;;;;;;22.05;18.83;;;12.60;99.90;;;;;;4900968;29;20079;-80
2023/10/26 10:30:57;;;;;;;22.58;18.33;;;12.60;99.90;;;;;;4917480;29;20037;-80
2023/10/26 10:33:28;;;;;;;22.55;18.40;;;12.60;99.90;;;;;;4916110;29;20476;-83
2023/10/26 10:36:04;;;;;;;23.77;20.02;;;12.60;99.90;;;;;;4899069;29;20420;-80
2023/10/26 10:38:32;;;;;;;25.35;19.83;;;12.60;99.90;;;;;;4916619;29;20099;-80
2023/10/26 10:41:01;;;;;;;28.17;21.80;;;12.40;99.90;;;;;;4871276;29;20065;-80
2023/10/26 10:43:30;;;;;;;25.35;18.63;;;12.40;99.90;;;;;;4886960;29;20403;-80
2023/10/26 10:45:56;;;;;;;23.58;19.30;;;12.40;99.90;;;;;;4911971;29;20055;-81
2023/10/26 10:48:22;;;;;;;24.23;20.63;;;12.50;99.90;;;;;;4917916;29;20528;-80
2023/10/26 10:50:51;;;;;;;24.42;20.25;;;12.50;99.90;;;;;;4899997;29;20457;-81
2023/10/26 10:53:17;;;;;;;24.63;19.63;;;12.50;99.90;;;;;;4885477;29;20038;-80
2023/10/26 10:55:43;;;;;;;26.30;20.00;;;12.50;99.90;;;;;;4881075;29;20486;-80
2023/10/26 10:58:09;;;;;;;26.05;21.20;;;12.60;99.90;;;;;;4913450;29;20032;-79
2023/10/26 11:00:45;;;;;;;23.42;18.55;;;12.70;99.90;;;;;;4916567;29;20064;-80
2023/10/26 11:03:21;;;;;;;22.08;18.17;;;12.70;99.90;;;;;;4917279;29;20187;-80
2023/10/26 11:05:48;;;;;;;23.45;17.40;;;12.80;99.90;;;;;;4917039;29;20044;-81
2023/10/26 11:08:14;;;;;;;19.30;15.98;;;12.90;99.90;;;;;;4900412;29;20067;-81
2023/10/26 11:10:39;;;;;;;24.42;20.95;;;13.00;99.90;;;;;;4917168;29;20042;-81
2023/10/26 11:13:05;;;;;;;26.95;21.90;;;13.20;99.90;;;;;;4899597;29;20036;-81
2023/10/26 11:15:36;;;;;;;24.02;18.40;;;13.10;99.90;;;;;;4917510;29;20032;-81
2023/10/26 11:18:03;;;;;;;23.27;19.55;;;12.90;99.90;;;;;;4916861;29;20033;-81
2023/10/26 11:20:55;;;;;;;19.60;15.70;;;12.90;99.90;;;;;;4900075;29;20057;-79
2023/10/26 11:23:23;;;;;;;24.08;19.55;;;12.90;99.90;;;;;;4889637;29;20199;-80
2023/10/26 11:25:48;;;;;;;25.38;19.70;;;13.00;99.90;;;;;;4880606;29;20043;-82
2023/10/26 11:28:14;;;;;;;25.48;20.63;;;13.00;99.90;;;;;;4898049;29;20040;-81
2023/10/26 11:30:48;;;;;;;20.90;17.50;;;12.90;99.90;;;;;;4880500;29;20044;-81
2023/10/26 11:33:35;;;;;;;23.73;16.77;;;12.90;99.90;;;;;;4865668;29;20489;-81
2023/10/26 11:36:06;;;;;;;21.95;17.08;;;13.00;99.90;;;;;;4909995;29;20020;-87
2023/10/26 11:38:32;;;;;;;25.85;20.23;;;13.10;99.90;;;;;;4902394;29;20075;-86
2023/10/26 11:40:57;;;;;;;23.17;18.30;;;13.10;99.90;;;;;;4868389;29;20485;-85
2023/10/26 11:43:33;;;;;;;21.85;18.42;;;13.10;99.90;;;;;;4900194;29;20037;-87
2023/10/26 11:45:59;;;;;;;28.50;19.23;;;13.00;99.90;;;;;;4905682;29;20073;-86
2023/10/26 11:48:30;;;;;;;27.02;21.70;;;12.90;99.90;;;;;;4885878;29;20033;-86
2023/10/26 11:50:57;;;;;;;24.15;19.50;;;13.00;99.90;;;;;;4883158;29;20033;-88
2023/10/26 11:53:23;;;;;;;22.83;18.98;;;13.00;99.90;;;;;;4902465;29;20036;-87
2023/10/26 11:55:50;;;;;;;25.05;19.92;;;13.00;99.90;;;;;;4883006;29;20119;-87
2023/10/26 11:58:16;;;;;;;19.23;15.52;;;13.00;99.90;;;;;;4881828;29;20036;-86
2023/10/26 12:00:42;;;;;;;23.33;19.58;;;13.00;99.90;;;;;;4888193;29;20028;-86
2023/10/26 12:03:08;;;;;;;22.75;18.85;;;13.10;99.90;;;;;;4859443;29;20048;-81
2023/10/26 12:05:34;;;;;;;22.45;17.88;;;13.10;99.90;;;;;;4885314;29;20056;-87
2023/10/26 12:08:00;;;;;;;21.63;17.08;;;13.00;99.90;;;;;;4902890;29;20032;-86
2023/10/26 12:10:26;;;;;;;22.30;17.70;;;13.00;99.90;;;;;;4885638;29;20053;-88
2023/10/26 12:12:53;;;;;;;21.67;17.27;;;13.00;99.90;;;;;;4901642;29;20094;-88
2023/10/26 12:15:22;;;;;;;24.73;18.85;;;13.00;99.90;;;;;;4900199;29;20033;-88
2023/10/26 12:17:48;;;;;;;23.40;19.88;;;13.00;99.90;;;;;;4900932;29;20029;-86
2023/10/26 12:20:14;;;;;;;27.88;21.25;;;13.00;99.90;;;;;;4882040;29;20063;-86
2023/10/26 12:22:41;;;;;;;19.95;16.08;;;13.00;99.90;;;;;;4898599;29;20039;-87
2023/10/26 12:25:08;;;;;;;22.17;18.50;;;12.90;99.90;;;;;;4883703;29;20469;-85
2023/10/26 12:27:35;;;;;;;23.95;19.02;;;12.90;99.90;;;;;;4898696;29;20033;-85